createdAt,value
2019-05-07T00:02:27.273Z,11.23
2019-05-07T00:04:55.789Z,11.10
2019-05-07T00:07:24.257Z,10.80
2019-05-07T00:09:52.757Z,11.23
2019-05-07T00:12:23.105Z,10.47
2019-05-07T00:15:00.905Z,9.97
2019-05-07T00:17:22.910Z,9.27
2019-05-07T00:19:52.591Z,9.77
2019-05-07T00:22:22.683Z,9.40
2019-05-07T00:24:52.144Z,8.47
2019-05-07T00:27:22.564Z,8.20
2019-05-07T00:29:52.090Z,8.77
2019-05-07T00:32:22.213Z,8.63
2019-05-07T00:34:55.202Z,9.50
2019-05-07T00:37:43.147Z,9.60
2019-05-07T00:40:25.462Z,9.27
2019-05-07T00:43:22.834Z,9.60
2019-05-07T00:45:56.849Z,9.90
2019-05-07T00:48:24.856Z,10.37
2019-05-07T00:50:58.103Z,10.77
2019-05-07T00:53:26.615Z,10.43
2019-05-07T00:55:55.106Z,10.60
2019-05-07T00:58:26.740Z,11.23
2019-05-07T01:00:54.146Z,11.10
2019-05-07T01:03:22.662Z,11.13
2019-05-07T01:05:52.746Z,11.03
2019-05-07T01:08:22.598Z,11.00
2019-05-07T01:10:52.920Z,12.13
2019-05-07T01:13:23.340Z,12.43
2019-05-07T01:15:53.203Z,12.47
2019-05-07T01:18:23.274Z,12.17
2019-05-07T01:20:53.307Z,12.80
2019-05-07T01:23:22.867Z,12.53
2019-05-07T01:25:52.576Z,13.00
2019-05-07T01:28:22.289Z,12.83
2019-05-07T01:30:52.869Z,13.77
2019-05-07T01:33:33.206Z,12.03
2019-05-07T01:36:15.724Z,13.10
2019-05-07T01:38:44.220Z,13.40
2019-05-07T01:41:13.479Z,12.70
2019-05-07T01:43:42.889Z,12.43
2019-05-07T01:46:12.314Z,12.67
2019-05-07T01:48:42.930Z,13.10
2019-05-07T01:51:12.868Z,12.77
2019-05-07T01:53:43.026Z,11.60
2019-05-07T01:56:12.426Z,13.20
2019-05-07T01:58:42.466Z,12.03
2019-05-07T02:01:13.046Z,12.40
2019-05-07T02:03:59.499Z,13.57
2019-05-07T02:06:59.211Z,12.77
2019-05-07T02:09:51.788Z,12.03
2019-05-07T02:12:26.229Z,12.63
2019-05-07T02:14:54.951Z,12.53
2019-05-07T02:17:23.435Z,12.83
2019-05-07T02:19:52.755Z,12.27
2019-05-07T02:22:22.673Z,12.10
2019-05-07T02:24:52.352Z,12.77
2019-05-07T02:27:22.098Z,12.00
2019-05-07T02:29:52.815Z,11.40
2019-05-07T02:32:23.730Z,11.70
2019-05-07T02:34:54.165Z,12.00
2019-05-07T02:37:33.750Z,11.90
2019-05-07T02:40:04.571Z,12.23
2019-05-07T02:42:33.797Z,11.13
2019-05-07T02:45:19.037Z,11.43
2019-05-07T02:47:47.553Z,11.10
2019-05-07T02:50:22.739Z,11.23
2019-05-07T02:52:59.552Z,11.47
2019-05-07T02:55:45.411Z,10.67
2019-05-07T02:58:13.961Z,10.93
2019-05-07T03:00:43.546Z,10.90
2019-05-07T03:03:13.763Z,11.17
2019-05-07T03:05:43.333Z,11.10
2019-05-07T03:08:13.504Z,11.77
2019-05-07T03:10:43.430Z,11.50
2019-05-07T03:13:13.704Z,12.23
2019-05-07T03:15:43.479Z,12.17
2019-05-07T03:18:13.830Z,12.07
2019-05-07T03:20:53.243Z,12.10
2019-05-07T03:23:24.290Z,11.57
2019-05-07T03:26:08.981Z,11.17
2019-05-07T03:28:53.518Z,10.97
2019-05-07T03:31:46.019Z,11.33
2019-05-07T03:34:25.770Z,10.97
2019-05-07T03:36:56.452Z,11.60
2019-05-07T03:39:24.051Z,11.10
2019-05-07T03:41:53.186Z,10.37
2019-05-07T03:44:29.440Z,11.33
2019-05-07T03:47:15.352Z,11.50
2019-05-07T03:49:43.874Z,11.80
2019-05-07T03:52:13.604Z,12.00
2019-05-07T03:54:43.190Z,24.53
2019-05-07T03:57:15.706Z,10.87
2019-05-07T03:59:43.159Z,11.70
2019-05-07T04:02:14.155Z,11.97
2019-05-07T04:04:43.389Z,12.10
2019-05-07T04:07:13.836Z,11.17
2019-05-07T04:09:43.714Z,11.03
2019-05-07T04:12:13.300Z,11.47
2019-05-07T04:14:43.236Z,11.77
2019-05-07T04:17:17.586Z,11.27
2019-05-07T04:19:44.062Z,11.07
2019-05-07T04:22:13.400Z,10.97
2019-05-07T04:25:07.126Z,11.53
2019-05-07T04:27:46.701Z,11.13
2019-05-07T04:30:12.848Z,10.57
2019-05-07T04:32:46.945Z,10.60
2019-05-07T04:35:33.910Z,11.00
2019-05-07T04:38:06.665Z,10.33
2019-05-07T04:40:33.839Z,11.23
2019-05-07T04:43:02.943Z,11.43
2019-05-07T04:45:33.690Z,10.60
2019-05-07T04:48:03.049Z,10.33
2019-05-07T04:50:42.547Z,10.30
2019-05-07T04:53:03.541Z,10.47
2019-05-07T04:55:33.449Z,10.37
2019-05-07T04:58:03.470Z,10.80
2019-05-07T05:00:33.572Z,10.10
2019-05-07T05:03:30.755Z,10.43
2019-05-07T05:05:59.191Z,9.17
2019-05-07T05:08:27.743Z,10.63
2019-05-07T05:10:56.320Z,9.57
2019-05-07T05:13:24.987Z,10.17
2019-05-07T05:15:53.598Z,10.20
2019-05-07T05:18:22.692Z,10.07
2019-05-07T05:21:08.760Z,9.17
2019-05-07T05:23:52.340Z,9.83
2019-05-07T05:26:21.853Z,9.37
2019-05-07T05:28:52.426Z,9.77
2019-05-07T05:31:22.301Z,9.50
2019-05-07T05:33:52.623Z,9.43
2019-05-07T05:36:22.159Z,9.37
2019-05-07T05:38:52.871Z,9.37
2019-05-07T05:41:22.619Z,8.80
2019-05-07T05:44:11.790Z,9.30
2019-05-07T05:46:39.792Z,8.73
2019-05-07T05:49:08.531Z,8.10
2019-05-07T05:51:45.595Z,9.33
2019-05-07T05:54:31.914Z,8.30
2019-05-07T05:57:23.164Z,9.27
2019-05-07T05:59:58.727Z,8.97
2019-05-07T06:02:45.172Z,7.90
2019-05-07T06:05:35.864Z,8.07
2019-05-07T06:08:24.119Z,8.90
2019-05-07T06:11:02.528Z,9.00
2019-05-07T06:13:36.716Z,8.53
2019-05-07T06:16:09.312Z,8.57
2019-05-07T06:18:52.646Z,8.57
2019-05-07T06:21:41.865Z,8.73
2019-05-07T06:24:11.946Z,9.27
2019-05-07T06:26:42.462Z,9.60
2019-05-07T06:29:11.947Z,8.70
2019-05-07T06:31:42.174Z,8.43
2019-05-07T06:34:12.448Z,8.53
2019-05-07T06:36:42.394Z,7.80
2019-05-07T06:39:25.781Z,8.30
2019-05-07T06:42:12.740Z,8.07
2019-05-07T06:44:42.725Z,8.20
2019-05-07T06:47:14.341Z,8.07
2019-05-07T06:49:42.895Z,6.77
2019-05-07T06:52:12.242Z,6.70
2019-05-07T06:54:42.815Z,6.57
2019-05-07T06:57:13.043Z,6.20
2019-05-07T06:59:46.663Z,6.63
2019-05-07T07:02:26.120Z,8.10
2019-05-07T07:04:58.569Z,7.63
2019-05-07T07:07:45.477Z,7.63
2019-05-07T07:10:32.326Z,8.03
2019-05-07T07:13:02.376Z,6.97
2019-05-07T07:15:32.090Z,6.00
2019-05-07T07:18:03.207Z,6.37
2019-05-07T07:20:32.596Z,37.37
2019-05-07T07:23:02.386Z,7.50
2019-05-07T07:25:32.569Z,6.80
2019-05-07T07:28:02.811Z,5.37
2019-05-07T07:30:52.677Z,5.50
2019-05-07T07:33:22.535Z,5.60
2019-05-07T07:35:52.085Z,5.20
2019-05-07T07:38:38.683Z,7.27
2019-05-07T07:41:33.546Z,6.60
2019-05-07T07:44:02.198Z,6.93
2019-05-07T07:46:32.862Z,4.53
2019-05-07T07:49:09.962Z,4.57
2019-05-07T07:51:39.776Z,4.60
2019-05-07T07:54:02.745Z,3.70
2019-05-07T07:56:51.877Z,4.13
2019-05-07T07:59:41.992Z,4.57
2019-05-07T08:02:28.210Z,4.70
2019-05-07T08:04:56.739Z,4.50
2019-05-07T08:07:25.191Z,4.10
2019-05-07T08:09:53.683Z,4.30
2019-05-07T08:12:22.386Z,4.17
2019-05-07T08:14:51.904Z,3.83
2019-05-07T08:17:22.332Z,4.30
2019-05-07T08:19:51.951Z,4.50
2019-05-07T08:22:22.666Z,4.20
2019-05-07T08:24:51.909Z,4.33
2019-05-07T08:27:22.213Z,4.20
2019-05-07T08:29:52.448Z,4.43
2019-05-07T08:32:39.752Z,4.50
2019-05-07T08:35:26.283Z,4.90
2019-05-07T08:37:54.743Z,4.83
2019-05-07T08:40:23.239Z,5.53
2019-05-07T08:42:52.487Z,4.10
2019-05-07T08:45:39.074Z,4.50
2019-05-07T08:48:12.642Z,4.17
2019-05-07T08:50:41.922Z,5.23
2019-05-07T08:53:10.483Z,4.37
2019-05-07T08:55:38.906Z,3.70
2019-05-07T08:58:07.375Z,4.20
2019-05-07T09:00:35.879Z,4.83
2019-05-07T09:03:04.359Z,4.30
2019-05-07T09:05:32.851Z,4.00
2019-05-07T09:08:02.295Z,3.93
2019-05-07T09:10:32.486Z,4.10
2019-05-07T09:13:02.804Z,3.77
2019-05-07T09:15:32.093Z,3.90
2019-05-07T09:18:02.027Z,3.43
2019-05-07T09:20:32.131Z,4.07
2019-05-07T09:23:02.163Z,4.30
2019-05-07T09:25:32.776Z,4.40
2019-05-07T09:28:02.643Z,4.27
2019-05-07T09:30:56.488Z,4.17
2019-05-07T09:33:32.611Z,4.43
2019-05-07T09:36:02.254Z,4.30
2019-05-07T09:38:32.692Z,6.93
2019-05-07T09:41:02.796Z,4.80
2019-05-07T09:43:32.498Z,4.60
2019-05-07T09:46:02.686Z,4.67
2019-05-07T09:48:33.615Z,4.93
2019-05-07T09:51:02.343Z,4.67
2019-05-07T09:53:32.136Z,6.23
2019-05-07T09:56:02.173Z,5.20
2019-05-07T09:58:36.517Z,5.00
2019-05-07T10:01:02.096Z,4.63
2019-05-07T10:03:32.513Z,4.17
2019-05-07T10:06:02.283Z,4.93
2019-05-07T10:08:31.899Z,4.87
2019-05-07T10:11:02.650Z,4.30
2019-05-07T10:13:59.172Z,4.67
2019-05-07T10:16:37.080Z,5.00
2019-05-07T10:19:05.680Z,4.00
2019-05-07T10:21:34.224Z,4.90
2019-05-07T10:24:02.801Z,4.67
2019-05-07T10:26:32.119Z,4.73
2019-05-07T10:29:02.123Z,4.63
2019-05-07T10:31:32.046Z,4.50
2019-05-07T10:34:02.908Z,4.80
2019-05-07T10:36:31.998Z,4.23
2019-05-07T10:39:02.529Z,4.27
2019-05-07T10:41:31.865Z,4.27
2019-05-07T10:44:02.408Z,4.33
2019-05-07T10:46:43.488Z,4.63
2019-05-07T10:49:18.144Z,4.73
2019-05-07T10:51:46.636Z,4.60
2019-05-07T10:54:15.190Z,4.00
2019-05-07T10:56:43.762Z,4.30
2019-05-07T10:59:12.503Z,4.07
2019-05-07T11:01:46.540Z,4.30
2019-05-07T11:04:15.032Z,4.03
2019-05-07T11:06:43.497Z,4.00
2019-05-07T11:09:12.740Z,7.50
2019-05-07T11:11:42.340Z,4.37
2019-05-07T11:14:12.316Z,3.90
2019-05-07T11:17:02.499Z,3.53
2019-05-07T11:19:32.318Z,3.77
2019-05-07T11:22:00.653Z,3.67
2019-05-07T11:24:29.169Z,4.50
2019-05-07T11:26:57.689Z,3.83
2019-05-07T11:29:26.192Z,3.63
2019-05-07T11:31:54.644Z,3.53
2019-05-07T11:34:23.220Z,3.70
2019-05-07T11:36:52.411Z,3.80
2019-05-07T11:39:22.656Z,4.27
2019-05-07T11:42:21.659Z,3.87
2019-05-07T11:44:52.140Z,3.90
2019-05-07T11:47:26.436Z,4.27
2019-05-07T11:50:14.763Z,3.70
2019-05-07T11:52:47.264Z,4.23
2019-05-07T11:55:15.757Z,3.80
2019-05-07T11:57:44.402Z,4.33
2019-05-07T12:00:23.797Z,4.20
2019-05-07T12:02:52.322Z,4.43
2019-05-07T12:05:22.693Z,4.10
2019-05-07T12:07:51.060Z,4.70
2019-05-07T12:10:19.549Z,4.30
2019-05-07T12:12:48.061Z,4.50
2019-05-07T12:15:16.817Z,4.30
2019-05-07T12:17:45.405Z,4.23
2019-05-07T12:20:14.761Z,4.43
2019-05-07T12:22:46.365Z,4.40
2019-05-07T12:25:15.197Z,4.90
2019-05-07T12:27:43.810Z,5.60
2019-05-07T12:30:15.599Z,4.90
2019-05-07T12:32:52.937Z,4.80
2019-05-07T12:35:21.976Z,5.10
2019-05-07T12:37:50.502Z,5.23
2019-05-07T12:40:19.189Z,4.83
2019-05-07T12:42:47.663Z,4.90
2019-05-07T12:45:16.162Z,5.07
2019-05-07T12:47:44.709Z,5.20
2019-05-07T12:50:13.547Z,5.13
2019-05-07T12:52:48.174Z,4.90
2019-05-07T12:55:33.131Z,4.90
2019-05-07T12:58:02.280Z,5.07
2019-05-07T13:00:58.867Z,5.50
2019-05-07T13:03:38.727Z,5.50
2019-05-07T13:06:07.247Z,5.20
2019-05-07T13:08:35.764Z,5.10
2019-05-07T13:11:04.247Z,5.70
2019-05-07T13:13:32.738Z,5.13
2019-05-07T13:16:02.949Z,5.33
2019-05-07T13:18:31.515Z,5.37
2019-05-07T13:21:02.215Z,5.43
2019-05-07T13:23:31.760Z,5.57
2019-05-07T13:26:02.348Z,6.10
2019-05-07T13:28:30.727Z,5.33
2019-05-07T13:30:59.199Z,5.67
2019-05-07T13:33:28.107Z,5.30
2019-05-07T13:35:56.587Z,4.67
2019-05-07T13:38:38.088Z,4.87
2019-05-07T13:41:16.783Z,4.63
2019-05-07T13:44:03.117Z,5.40
2019-05-07T13:46:32.646Z,5.40
2019-05-07T13:49:02.179Z,5.57
2019-05-07T13:51:33.602Z,5.30
2019-05-07T13:54:02.066Z,5.80
2019-05-07T13:56:32.650Z,5.60
2019-05-07T13:59:04.642Z,5.80
2019-05-07T14:01:50.116Z,5.90
2019-05-07T14:04:19.100Z,5.87
2019-05-07T14:06:47.612Z,6.63
2019-05-07T14:09:23.921Z,6.60
2019-05-07T14:11:52.789Z,6.10
2019-05-07T14:14:22.403Z,6.57
2019-05-07T14:16:53.093Z,6.77
2019-05-07T14:19:22.437Z,6.50
2019-05-07T14:21:52.595Z,6.20
2019-05-07T14:24:22.453Z,6.63
2019-05-07T14:26:52.729Z,7.20
2019-05-07T14:29:24.374Z,7.43
2019-05-07T14:31:59.729Z,6.90
2019-05-07T14:34:35.017Z,7.43
2019-05-07T14:37:28.748Z,7.20
2019-05-07T14:39:57.289Z,7.53
2019-05-07T14:42:34.637Z,7.37
2019-05-07T14:45:03.286Z,7.00
2019-05-07T14:47:31.765Z,6.53
2019-05-07T14:50:02.148Z,6.53
2019-05-07T14:52:33.865Z,6.97
2019-05-07T14:55:05.083Z,6.40
2019-05-07T14:57:32.543Z,6.00
2019-05-07T15:00:03.096Z,5.83
2019-05-07T15:02:32.610Z,6.40
2019-05-07T15:05:02.787Z,6.53
2019-05-07T15:07:32.688Z,7.40
2019-05-07T15:10:02.360Z,6.90
2019-05-07T15:12:32.892Z,6.83
2019-05-07T15:15:02.164Z,7.27
2019-05-07T15:17:43.441Z,7.27
2019-05-07T15:20:12.330Z,7.67
2019-05-07T15:22:49.974Z,8.20
2019-05-07T15:25:17.662Z,7.93
2019-05-07T15:27:47.421Z,8.73
2019-05-07T15:30:16.476Z,8.10
2019-05-07T15:32:44.942Z,8.43
2019-05-07T15:35:13.420Z,8.90
2019-05-07T15:37:42.752Z,8.70
2019-05-07T15:40:11.674Z,8.43
2019-05-07T15:42:41.993Z,9.10
2019-05-07T15:45:12.347Z,8.70
2019-05-07T15:47:44.086Z,8.40
2019-05-07T15:50:12.702Z,8.53
2019-05-07T15:52:58.489Z,9.90
2019-05-07T15:55:22.644Z,8.07
2019-05-07T15:57:52.141Z,8.60
2019-05-07T16:00:22.834Z,9.60
2019-05-07T16:02:55.539Z,8.93
2019-05-07T16:05:24.102Z,8.90
2019-05-07T16:07:52.901Z,8.67
2019-05-07T16:10:24.076Z,8.23
2019-05-07T16:12:53.245Z,8.13
2019-05-07T16:15:22.794Z,9.47
2019-05-07T16:18:02.780Z,9.60
2019-05-07T16:20:32.594Z,10.00
2019-05-07T16:23:14.315Z,9.70
2019-05-07T16:25:32.931Z,10.27
2019-05-07T16:28:04.451Z,10.27
2019-05-07T16:30:32.412Z,10.73
2019-05-07T16:33:02.178Z,10.40
2019-05-07T16:35:32.036Z,10.03
2019-05-07T16:38:00.807Z,10.03
2019-05-07T16:40:29.298Z,9.93
2019-05-07T16:42:57.779Z,9.67
2019-05-07T16:45:26.336Z,10.17
2019-05-07T16:47:54.847Z,10.03
2019-05-07T16:50:23.610Z,10.83
2019-05-07T16:52:52.554Z,10.27
2019-05-07T16:55:22.408Z,10.87
2019-05-07T16:58:20.588Z,10.17
2019-05-07T17:00:52.918Z,10.40
2019-05-07T17:03:25.483Z,10.03
2019-05-07T17:05:53.988Z,11.50
2019-05-07T17:08:44.800Z,10.07
2019-05-07T17:11:13.299Z,9.73
2019-05-07T17:13:42.403Z,10.60
2019-05-07T17:16:12.368Z,10.50
2019-05-07T17:18:41.068Z,10.00
2019-05-07T17:21:09.891Z,10.20
2019-05-07T17:23:44.206Z,10.53
2019-05-07T17:26:08.620Z,10.23
2019-05-07T17:28:37.118Z,10.60
2019-05-07T17:31:05.626Z,9.93
2019-05-07T17:33:34.156Z,10.40
2019-05-07T17:36:02.714Z,10.40
2019-05-07T17:38:32.159Z,10.73
2019-05-07T17:41:10.920Z,10.30
2019-05-07T17:43:32.508Z,10.70
2019-05-07T17:46:02.816Z,10.20
2019-05-07T17:48:32.730Z,10.27
2019-05-07T17:51:23.600Z,10.50
2019-05-07T17:53:59.667Z,10.03
2019-05-07T17:56:22.497Z,10.03
2019-05-07T17:58:52.246Z,10.20
2019-05-07T18:01:38.872Z,11.17
2019-05-07T18:04:07.496Z,10.90
2019-05-07T18:06:36.081Z,11.07
2019-05-07T18:09:05.485Z,11.20
2019-05-07T18:11:34.426Z,10.57
2019-05-07T18:14:03.204Z,11.10
2019-05-07T18:16:37.788Z,11.73
2019-05-07T18:19:06.334Z,12.00
2019-05-07T18:21:34.920Z,12.33
2019-05-07T18:24:13.325Z,11.87
2019-05-07T18:26:33.985Z,12.40
2019-05-07T18:29:02.574Z,12.90
2019-05-07T18:31:48.545Z,12.27
2019-05-07T18:34:17.076Z,12.60
2019-05-07T18:36:45.573Z,15.13
2019-05-07T18:39:14.057Z,13.10
2019-05-07T18:41:42.651Z,11.93
2019-05-07T18:44:13.603Z,12.90
2019-05-07T18:46:42.110Z,15.63
2019-05-07T18:49:12.635Z,21.13
2019-05-07T18:51:42.623Z,20.50
2019-05-07T18:54:12.034Z,14.53
2019-05-07T18:56:42.045Z,13.77
2019-05-07T18:59:11.569Z,13.80
2019-05-07T19:01:42.244Z,20.17
2019-05-07T19:04:12.964Z,38.53
2019-05-07T19:06:42.423Z,42.53
2019-05-07T19:09:11.256Z,39.40
2019-05-07T19:11:42.581Z,37.57
2019-05-07T19:14:10.652Z,28.20
2019-05-07T19:16:39.136Z,22.07
2019-05-07T19:19:07.663Z,16.93
2019-05-07T19:21:36.171Z,16.77
2019-05-07T19:24:04.714Z,15.03
2019-05-07T19:26:33.596Z,15.30
2019-05-07T19:29:02.586Z,14.93
2019-05-07T19:31:32.532Z,14.07
2019-05-07T19:34:03.080Z,14.43
2019-05-07T19:36:32.247Z,14.80
2019-05-07T19:39:05.731Z,14.97
2019-05-07T19:41:35.619Z,14.17
2019-05-07T19:44:04.236Z,14.03
2019-05-07T19:46:32.668Z,14.63
2019-05-07T19:49:02.736Z,14.63
2019-05-07T19:51:32.048Z,13.23
2019-05-07T19:54:02.055Z,15.30
2019-05-07T19:56:32.409Z,15.13
2019-05-07T19:59:01.061Z,15.43
2019-05-07T20:01:37.872Z,15.13
2019-05-07T20:04:06.430Z,15.47
2019-05-07T20:06:37.480Z,16.57
2019-05-07T20:09:11.944Z,17.13
2019-05-07T20:11:44.826Z,16.53
2019-05-07T20:14:13.368Z,16.57
2019-05-07T20:16:42.092Z,17.50
2019-05-07T20:19:12.052Z,18.50
2019-05-07T20:21:40.872Z,17.80
2019-05-07T20:24:09.420Z,17.27
2019-05-07T20:26:39.092Z,16.67
2019-05-07T20:29:07.687Z,28.77
2019-05-07T20:31:36.093Z,17.03
2019-05-07T20:34:04.620Z,16.83
2019-05-07T20:36:33.564Z,16.80
2019-05-07T20:39:02.272Z,18.60
2019-05-07T20:41:32.872Z,17.70
2019-05-07T20:44:02.854Z,18.93
2019-05-07T20:46:31.903Z,17.53
2019-05-07T20:49:02.681Z,17.40
2019-05-07T20:51:32.532Z,16.63
2019-05-07T20:54:26.269Z,17.33
2019-05-07T20:57:02.249Z,18.07
2019-05-07T20:59:32.773Z,18.13
2019-05-07T21:02:02.343Z,18.23
2019-05-07T21:04:32.997Z,19.23
2019-05-07T21:07:02.153Z,18.27
2019-05-07T21:09:32.610Z,19.80
2019-05-07T21:12:00.981Z,18.07
2019-05-07T21:14:29.405Z,18.90
2019-05-07T21:16:57.953Z,19.50
2019-05-07T21:19:26.463Z,19.07
2019-05-07T21:21:55.249Z,18.67
2019-05-07T21:24:23.683Z,20.20
2019-05-07T21:26:53.040Z,18.97
2019-05-07T21:29:21.818Z,17.60
2019-05-07T21:31:52.312Z,19.80
2019-05-07T21:34:20.414Z,20.63
2019-05-07T21:36:48.913Z,21.07
2019-05-07T21:39:17.449Z,19.77
2019-05-07T21:41:45.938Z,18.60
2019-05-07T21:44:14.690Z,18.30
2019-05-07T21:46:45.434Z,19.47
2019-05-07T21:49:13.922Z,17.93
2019-05-07T21:51:43.241Z,19.13
2019-05-07T21:54:43.483Z,19.10
2019-05-07T21:57:35.895Z,21.77
2019-05-07T22:00:21.943Z,18.90
2019-05-07T22:02:52.435Z,21.03
2019-05-07T22:05:22.273Z,19.33
2019-05-07T22:07:54.241Z,19.37
2019-05-07T22:10:22.225Z,19.80
2019-05-07T22:12:52.110Z,22.83
2019-05-07T22:15:22.456Z,24.87
2019-05-07T22:17:52.058Z,23.63
2019-05-07T22:20:20.890Z,19.70
2019-05-07T22:22:49.402Z,21.37
2019-05-07T22:25:17.875Z,19.97
2019-05-07T22:27:46.762Z,19.70
2019-05-07T22:30:23.183Z,20.03
2019-05-07T22:33:07.190Z,19.97
2019-05-07T22:35:39.482Z,20.67
2019-05-07T22:38:07.914Z,19.73
2019-05-07T22:40:36.699Z,20.30
2019-05-07T22:43:05.518Z,19.67
2019-05-07T22:45:34.259Z,19.43
2019-05-07T22:48:02.941Z,19.63
2019-05-07T22:50:33.136Z,19.70
2019-05-07T22:53:02.026Z,19.83
2019-05-07T22:55:32.562Z,19.17
2019-05-07T22:58:14.382Z,20.23
2019-05-07T23:00:53.627Z,19.83
2019-05-07T23:03:22.878Z,19.13
2019-05-07T23:05:52.332Z,19.67
2019-05-07T23:08:22.244Z,19.17
2019-05-07T23:10:52.578Z,18.53
2019-05-07T23:13:22.634Z,20.73
2019-05-07T23:15:51.642Z,20.07
2019-05-07T23:18:22.716Z,20.33
2019-05-07T23:20:52.810Z,21.00
2019-05-07T23:23:21.808Z,19.40
2019-05-07T23:25:52.425Z,20.93
2019-05-07T23:28:22.943Z,20.93
2019-05-07T23:30:51.869Z,20.60
2019-05-07T23:33:22.477Z,20.60
2019-05-07T23:35:52.719Z,21.37
2019-05-07T23:38:22.536Z,21.60
2019-05-07T23:41:09.115Z,20.80
2019-05-07T23:43:37.698Z,20.37
2019-05-07T23:46:06.176Z,20.77
2019-05-07T23:48:34.744Z,20.20
2019-05-07T23:51:03.222Z,20.40
2019-05-07T23:53:31.709Z,20.63
2019-05-07T23:56:00.216Z,19.93
2019-05-07T23:58:28.641Z,21.20
